sensor_id;sensor_type;location;lat;lon;timestamp;P1;durP1;ratioP1;P2;durP2;ratioP2
1625;SDS011;806;48.770;9.156;2023-03-04T00:00:01;18.15;;;12.00;;
1625;SDS011;806;48.770;9.156;2023-03-04T00:02:28;19.42;;;12.38;;
1625;SDS011;806;48.770;9.156;2023-03-04T00:04:57;18.20;;;12.27;;
1625;SDS011;806;48.770;9.156;2023-03-04T00:07:24;19.25;;;12.13;;
1625;SDS011;806;48.770;9.156;2023-03-04T00:09:51;20.45;;;12.85;;
1625;SDS011;806;48.770;9.156;2023-03-04T00:12:18;17.93;;;12.13;;
1625;SDS011;806;48.770;9.156;2023-03-04T00:14:45;15.43;;;11.35;;
1625;SDS011;806;48.770;9.156;2023-03-04T00:17:12;15.20;;;10.35;;
1625;SDS011;806;48.770;9.156;2023-03-04T00:19:40;16.83;;;11.38;;
1625;SDS011;806;48.770;9.156;2023-03-04T00:22:08;18.20;;;11.48;;
1625;SDS011;806;48.770;9.156;2023-03-04T00:24:35;16.58;;;10.98;;
1625;SDS011;806;48.770;9.156;2023-03-04T00:27:03;18.13;;;11.40;;
1625;SDS011;806;48.770;9.156;2023-03-04T00:29:30;16.63;;;11.57;;
1625;SDS011;806;48.770;9.156;2023-03-04T00:31:57;17.98;;;11.48;;
1625;SDS011;806;48.770;9.156;2023-03-04T00:34:24;17.00;;;10.65;;
1625;SDS011;806;48.770;9.156;2023-03-04T00:36:51;17.85;;;12.07;;
1625;SDS011;806;48.770;9.156;2023-03-04T00:39:20;16.80;;;11.40;;
1625;SDS011;806;48.770;9.156;2023-03-04T00:41:47;18.50;;;12.00;;
1625;SDS011;806;48.770;9.156;2023-03-04T00:44:14;18.85;;;11.73;;
1625;SDS011;806;48.770;9.156;2023-03-04T00:46:41;17.02;;;10.70;;
1625;SDS011;806;48.770;9.156;2023-03-04T00:49:08;20.50;;;12.90;;
1625;SDS011;806;48.770;9.156;2023-03-04T00:51:35;21.17;;;12.05;;
1625;SDS011;806;48.770;9.156;2023-03-04T00:54:03;19.00;;;12.23;;
1625;SDS011;806;48.770;9.156;2023-03-04T00:56:31;16.73;;;11.43;;
1625;SDS011;806;48.770;9.156;2023-03-04T00:58:58;19.95;;;11.43;;
1625;SDS011;806;48.770;9.156;2023-03-04T01:01:25;16.98;;;10.23;;
1625;SDS011;806;48.770;9.156;2023-03-04T01:03:52;19.23;;;11.20;;
1625;SDS011;806;48.770;9.156;2023-03-04T01:06:19;19.40;;;11.43;;
1625;SDS011;806;48.770;9.156;2023-03-04T01:08:47;17.47;;;11.30;;
1625;SDS011;806;48.770;9.156;2023-03-04T01:11:14;17.95;;;11.88;;
1625;SDS011;806;48.770;9.156;2023-03-04T01:13:42;19.83;;;11.18;;
1625;SDS011;806;48.770;9.156;2023-03-04T01:16:09;18.00;;;11.50;;
1625;SDS011;806;48.770;9.156;2023-03-04T01:18:37;17.90;;;10.10;;
1625;SDS011;806;48.770;9.156;2023-03-04T01:21:04;18.00;;;11.27;;
1625;SDS011;806;48.770;9.156;2023-03-04T01:23:32;15.27;;;10.50;;
1625;SDS011;806;48.770;9.156;2023-03-04T01:25:59;16.33;;;9.95;;
1625;SDS011;806;48.770;9.156;2023-03-04T01:28:26;14.32;;;8.73;;
1625;SDS011;806;48.770;9.156;2023-03-04T01:30:54;16.05;;;10.20;;
1625;SDS011;806;48.770;9.156;2023-03-04T01:33:22;17.58;;;11.13;;
1625;SDS011;806;48.770;9.156;2023-03-04T01:35:49;16.00;;;10.40;;
1625;SDS011;806;48.770;9.156;2023-03-04T01:38:16;16.42;;;10.48;;
1625;SDS011;806;48.770;9.156;2023-03-04T01:40:43;17.30;;;10.53;;
1625;SDS011;806;48.770;9.156;2023-03-04T01:43:11;17.30;;;10.15;;
1625;SDS011;806;48.770;9.156;2023-03-04T01:45:46;17.30;;;11.55;;
1625;SDS011;806;48.770;9.156;2023-03-04T01:48:17;18.30;;;11.97;;
1625;SDS011;806;48.770;9.156;2023-03-04T01:50:45;16.75;;;11.07;;
1625;SDS011;806;48.770;9.156;2023-03-04T01:53:14;19.65;;;12.02;;
1625;SDS011;806;48.770;9.156;2023-03-04T01:55:45;19.08;;;11.57;;
1625;SDS011;806;48.770;9.156;2023-03-04T01:58:12;15.23;;;9.98;;
1625;SDS011;806;48.770;9.156;2023-03-04T02:00:40;20.90;;;12.20;;
1625;SDS011;806;48.770;9.156;2023-03-04T02:03:07;16.85;;;10.75;;
1625;SDS011;806;48.770;9.156;2023-03-04T02:05:38;16.70;;;10.13;;
1625;SDS011;806;48.770;9.156;2023-03-04T02:08:08;15.95;;;10.30;;
1625;SDS011;806;48.770;9.156;2023-03-04T02:10:36;18.83;;;10.60;;
1625;SDS011;806;48.770;9.156;2023-03-04T02:13:04;17.63;;;10.20;;
1625;SDS011;806;48.770;9.156;2023-03-04T02:15:31;15.57;;;9.70;;
1625;SDS011;806;48.770;9.156;2023-03-04T02:17:58;15.45;;;9.60;;
1625;SDS011;806;48.770;9.156;2023-03-04T02:20:30;14.13;;;9.13;;
1625;SDS011;806;48.770;9.156;2023-03-04T02:23:10;13.53;;;9.00;;
1625;SDS011;806;48.770;9.156;2023-03-04T02:25:43;14.65;;;9.50;;
1625;SDS011;806;48.770;9.156;2023-03-04T02:28:14;17.30;;;10.70;;
1625;SDS011;806;48.770;9.156;2023-03-04T02:30:41;16.03;;;9.83;;
1625;SDS011;806;48.770;9.156;2023-03-04T02:33:10;16.52;;;10.07;;
1625;SDS011;806;48.770;9.156;2023-03-04T02:35:42;15.55;;;11.20;;
1625;SDS011;806;48.770;9.156;2023-03-04T02:38:09;16.77;;;10.90;;
1625;SDS011;806;48.770;9.156;2023-03-04T02:40:37;19.60;;;10.95;;
1625;SDS011;806;48.770;9.156;2023-03-04T02:43:08;19.13;;;10.70;;
1625;SDS011;806;48.770;9.156;2023-03-04T02:45:40;16.50;;;10.35;;
1625;SDS011;806;48.770;9.156;2023-03-04T02:48:09;17.58;;;10.40;;
1625;SDS011;806;48.770;9.156;2023-03-04T02:50:38;19.27;;;10.60;;
1625;SDS011;806;48.770;9.156;2023-03-04T02:53:08;12.63;;;9.27;;
1625;SDS011;806;48.770;9.156;2023-03-04T02:55:35;14.02;;;9.30;;
1625;SDS011;806;48.770;9.156;2023-03-04T02:58:02;13.88;;;8.88;;
1625;SDS011;806;48.770;9.156;2023-03-04T03:00:30;14.27;;;7.80;;
1625;SDS011;806;48.770;9.156;2023-03-04T03:02:58;12.68;;;8.45;;
1625;SDS011;806;48.770;9.156;2023-03-04T03:05:26;13.87;;;8.77;;
1625;SDS011;806;48.770;9.156;2023-03-04T03:07:55;15.27;;;10.65;;
1625;SDS011;806;48.770;9.156;2023-03-04T03:10:22;12.10;;;8.40;;
1625;SDS011;806;48.770;9.156;2023-03-04T03:12:50;13.32;;;8.73;;
1625;SDS011;806;48.770;9.156;2023-03-04T03:15:17;14.33;;;9.00;;
1625;SDS011;806;48.770;9.156;2023-03-04T03:17:45;15.68;;;9.27;;
1625;SDS011;806;48.770;9.156;2023-03-04T03:20:13;15.40;;;9.40;;
1625;SDS011;806;48.770;9.156;2023-03-04T03:22:42;14.07;;;8.80;;
1625;SDS011;806;48.770;9.156;2023-03-04T03:25:09;12.70;;;7.90;;
1625;SDS011;806;48.770;9.156;2023-03-04T03:27:38;14.45;;;9.00;;
1625;SDS011;806;48.770;9.156;2023-03-04T03:30:06;14.75;;;8.48;;
1625;SDS011;806;48.770;9.156;2023-03-04T03:32:35;12.15;;;7.40;;
1625;SDS011;806;48.770;9.156;2023-03-04T03:35:03;12.20;;;7.93;;
1625;SDS011;806;48.770;9.156;2023-03-04T03:37:31;13.35;;;8.77;;
1625;SDS011;806;48.770;9.156;2023-03-04T03:39:59;15.27;;;7.90;;
1625;SDS011;806;48.770;9.156;2023-03-04T03:42:26;13.77;;;8.80;;
1625;SDS011;806;48.770;9.156;2023-03-04T03:44:53;13.67;;;8.57;;
1625;SDS011;806;48.770;9.156;2023-03-04T03:47:21;14.38;;;7.97;;
1625;SDS011;806;48.770;9.156;2023-03-04T03:49:48;13.20;;;7.90;;
1625;SDS011;806;48.770;9.156;2023-03-04T03:52:15;12.17;;;7.60;;
1625;SDS011;806;48.770;9.156;2023-03-04T03:54:44;13.45;;;8.55;;
1625;SDS011;806;48.770;9.156;2023-03-04T03:57:11;13.50;;;7.63;;
1625;SDS011;806;48.770;9.156;2023-03-04T03:59:38;10.77;;;7.90;;
1625;SDS011;806;48.770;9.156;2023-03-04T04:02:05;15.07;;;8.43;;
1625;SDS011;806;48.770;9.156;2023-03-04T04:04:32;12.18;;;8.68;;
1625;SDS011;806;48.770;9.156;2023-03-04T04:06:59;14.13;;;9.10;;
1625;SDS011;806;48.770;9.156;2023-03-04T04:09:27;16.58;;;8.98;;
1625;SDS011;806;48.770;9.156;2023-03-04T04:11:55;16.57;;;9.40;;
1625;SDS011;806;48.770;9.156;2023-03-04T04:14:22;14.93;;;9.48;;
1625;SDS011;806;48.770;9.156;2023-03-04T04:16:50;14.93;;;8.55;;
1625;SDS011;806;48.770;9.156;2023-03-04T04:19:17;14.77;;;9.20;;
1625;SDS011;806;48.770;9.156;2023-03-04T04:21:45;16.75;;;9.43;;
1625;SDS011;806;48.770;9.156;2023-03-04T04:24:12;12.65;;;8.13;;
1625;SDS011;806;48.770;9.156;2023-03-04T04:26:40;16.13;;;8.63;;
1625;SDS011;806;48.770;9.156;2023-03-04T04:29:09;11.82;;;7.53;;
1625;SDS011;806;48.770;9.156;2023-03-04T04:31:39;12.60;;;8.18;;
1625;SDS011;806;48.770;9.156;2023-03-04T04:34:07;12.57;;;6.93;;
1625;SDS011;806;48.770;9.156;2023-03-04T04:36:34;11.77;;;7.40;;
1625;SDS011;806;48.770;9.156;2023-03-04T04:39:01;13.25;;;8.93;;
1625;SDS011;806;48.770;9.156;2023-03-04T04:41:30;15.13;;;8.50;;
1625;SDS011;806;48.770;9.156;2023-03-04T04:44:01;13.15;;;7.82;;
1625;SDS011;806;48.770;9.156;2023-03-04T04:46:30;14.63;;;8.45;;
1625;SDS011;806;48.770;9.156;2023-03-04T04:48:57;14.05;;;8.40;;
1625;SDS011;806;48.770;9.156;2023-03-04T04:51:25;13.63;;;8.30;;
1625;SDS011;806;48.770;9.156;2023-03-04T04:53:52;12.27;;;7.60;;
1625;SDS011;806;48.770;9.156;2023-03-04T04:56:20;14.20;;;7.33;;
1625;SDS011;806;48.770;9.156;2023-03-04T04:58:50;13.13;;;7.88;;
1625;SDS011;806;48.770;9.156;2023-03-04T05:01:18;10.70;;;7.43;;
1625;SDS011;806;48.770;9.156;2023-03-04T05:03:47;13.57;;;7.68;;
1625;SDS011;806;48.770;9.156;2023-03-04T05:06:17;14.15;;;7.70;;
1625;SDS011;806;48.770;9.156;2023-03-04T05:08:45;12.15;;;7.10;;
1625;SDS011;806;48.770;9.156;2023-03-04T05:11:12;15.18;;;7.85;;
1625;SDS011;806;48.770;9.156;2023-03-04T05:13:40;12.75;;;8.10;;
1625;SDS011;806;48.770;9.156;2023-03-04T05:16:07;15.48;;;9.10;;
1625;SDS011;806;48.770;9.156;2023-03-04T05:18:34;15.20;;;8.80;;
1625;SDS011;806;48.770;9.156;2023-03-04T05:21:03;12.88;;;8.05;;
1625;SDS011;806;48.770;9.156;2023-03-04T05:23:31;13.07;;;7.90;;
1625;SDS011;806;48.770;9.156;2023-03-04T05:26:00;14.85;;;8.20;;
1625;SDS011;806;48.770;9.156;2023-03-04T05:28:27;13.05;;;8.75;;
1625;SDS011;806;48.770;9.156;2023-03-04T05:30:54;12.63;;;7.55;;
1625;SDS011;806;48.770;9.156;2023-03-04T05:33:21;14.75;;;8.60;;
1625;SDS011;806;48.770;9.156;2023-03-04T05:35:49;11.95;;;8.10;;
1625;SDS011;806;48.770;9.156;2023-03-04T05:38:18;15.80;;;9.43;;
1625;SDS011;806;48.770;9.156;2023-03-04T05:40:46;14.57;;;8.77;;
1625;SDS011;806;48.770;9.156;2023-03-04T05:43:14;15.60;;;8.82;;
1625;SDS011;806;48.770;9.156;2023-03-04T05:45:41;12.75;;;7.70;;
1625;SDS011;806;48.770;9.156;2023-03-04T05:48:08;14.80;;;8.13;;
1625;SDS011;806;48.770;9.156;2023-03-04T05:50:35;12.27;;;8.18;;
1625;SDS011;806;48.770;9.156;2023-03-04T05:53:02;15.18;;;8.10;;
1625;SDS011;806;48.770;9.156;2023-03-04T05:55:31;11.20;;;7.10;;
1625;SDS011;806;48.770;9.156;2023-03-04T05:57:58;14.23;;;7.90;;
1625;SDS011;806;48.770;9.156;2023-03-04T06:00:25;12.10;;;7.05;;
1625;SDS011;806;48.770;9.156;2023-03-04T06:02:52;15.33;;;7.60;;
1625;SDS011;806;48.770;9.156;2023-03-04T06:05:20;12.65;;;6.82;;
1625;SDS011;806;48.770;9.156;2023-03-04T06:07:47;13.65;;;8.20;;
1625;SDS011;806;48.770;9.156;2023-03-04T06:10:15;14.07;;;7.80;;
1625;SDS011;806;48.770;9.156;2023-03-04T06:12:44;15.02;;;7.55;;
1625;SDS011;806;48.770;9.156;2023-03-04T06:15:11;12.23;;;6.70;;
1625;SDS011;806;48.770;9.156;2023-03-04T06:17:39;12.63;;;7.57;;
1625;SDS011;806;48.770;9.156;2023-03-04T06:20:09;15.20;;;7.75;;
1625;SDS011;806;48.770;9.156;2023-03-04T06:22:37;15.90;;;8.63;;
1625;SDS011;806;48.770;9.156;2023-03-04T06:25:04;14.10;;;8.43;;
1625;SDS011;806;48.770;9.156;2023-03-04T06:27:32;15.13;;;8.20;;
1625;SDS011;806;48.770;9.156;2023-03-04T06:30:01;14.80;;;7.80;;
1625;SDS011;806;48.770;9.156;2023-03-04T06:32:28;14.68;;;9.00;;
1625;SDS011;806;48.770;9.156;2023-03-04T06:34:55;14.88;;;8.88;;
1625;SDS011;806;48.770;9.156;2023-03-04T06:37:22;14.77;;;8.75;;
1625;SDS011;806;48.770;9.156;2023-03-04T06:39:50;18.25;;;8.80;;
1625;SDS011;806;48.770;9.156;2023-03-04T06:42:17;16.45;;;8.30;;
1625;SDS011;806;48.770;9.156;2023-03-04T06:44:44;15.85;;;8.40;;
1625;SDS011;806;48.770;9.156;2023-03-04T06:47:12;15.15;;;8.27;;
1625;SDS011;806;48.770;9.156;2023-03-04T06:49:40;14.95;;;8.82;;
1625;SDS011;806;48.770;9.156;2023-03-04T06:52:07;15.30;;;8.57;;
1625;SDS011;806;48.770;9.156;2023-03-04T06:54:36;14.85;;;8.95;;
1625;SDS011;806;48.770;9.156;2023-03-04T06:57:03;15.43;;;8.00;;
1625;SDS011;806;48.770;9.156;2023-03-04T06:59:30;15.13;;;8.30;;
1625;SDS011;806;48.770;9.156;2023-03-04T07:01:58;16.07;;;7.80;;
1625;SDS011;806;48.770;9.156;2023-03-04T07:04:26;15.57;;;9.60;;
1625;SDS011;806;48.770;9.156;2023-03-04T07:06:53;13.57;;;7.65;;
1625;SDS011;806;48.770;9.156;2023-03-04T07:09:21;10.48;;;6.80;;
1625;SDS011;806;48.770;9.156;2023-03-04T07:11:48;15.50;;;7.57;;
1625;SDS011;806;48.770;9.156;2023-03-04T07:14:15;14.60;;;7.97;;
1625;SDS011;806;48.770;9.156;2023-03-04T07:16:42;14.70;;;7.78;;
1625;SDS011;806;48.770;9.156;2023-03-04T07:19:09;12.95;;;6.90;;
1625;SDS011;806;48.770;9.156;2023-03-04T07:21:38;14.18;;;6.80;;
1625;SDS011;806;48.770;9.156;2023-03-04T07:24:05;14.10;;;8.30;;
1625;SDS011;806;48.770;9.156;2023-03-04T07:26:32;13.10;;;7.40;;
1625;SDS011;806;48.770;9.156;2023-03-04T07:29:02;14.70;;;7.70;;
1625;SDS011;806;48.770;9.156;2023-03-04T07:31:30;13.73;;;6.82;;
1625;SDS011;806;48.770;9.156;2023-03-04T07:33:58;12.65;;;7.68;;
1625;SDS011;806;48.770;9.156;2023-03-04T07:36:27;16.00;;;8.90;;
1625;SDS011;806;48.770;9.156;2023-03-04T07:38:56;11.73;;;7.07;;
1625;SDS011;806;48.770;9.156;2023-03-04T07:41:24;11.98;;;7.00;;
1625;SDS011;806;48.770;9.156;2023-03-04T07:43:52;12.05;;;7.40;;
1625;SDS011;806;48.770;9.156;2023-03-04T07:46:21;13.63;;;7.10;;
1625;SDS011;806;48.770;9.156;2023-03-04T07:48:48;11.90;;;6.07;;
1625;SDS011;806;48.770;9.156;2023-03-04T07:51:16;10.60;;;6.43;;
1625;SDS011;806;48.770;9.156;2023-03-04T07:53:45;9.68;;;5.22;;
1625;SDS011;806;48.770;9.156;2023-03-04T07:56:15;10.50;;;5.22;;
1625;SDS011;806;48.770;9.156;2023-03-04T07:58:44;12.30;;;5.88;;
1625;SDS011;806;48.770;9.156;2023-03-04T08:01:12;10.10;;;5.75;;
1625;SDS011;806;48.770;9.156;2023-03-04T08:03:40;11.30;;;5.80;;
1625;SDS011;806;48.770;9.156;2023-03-04T08:06:09;12.30;;;6.30;;
1625;SDS011;806;48.770;9.156;2023-03-04T08:08:37;12.38;;;6.40;;
1625;SDS011;806;48.770;9.156;2023-03-04T08:11:05;12.90;;;6.60;;
1625;SDS011;806;48.770;9.156;2023-03-04T08:13:35;11.05;;;6.60;;
1625;SDS011;806;48.770;9.156;2023-03-04T08:16:03;14.60;;;6.93;;
1625;SDS011;806;48.770;9.156;2023-03-04T08:18:31;10.02;;;4.90;;
1625;SDS011;806;48.770;9.156;2023-03-04T08:20:59;11.20;;;6.35;;
1625;SDS011;806;48.770;9.156;2023-03-04T08:23:26;10.25;;;5.75;;
1625;SDS011;806;48.770;9.156;2023-03-04T08:25:53;11.80;;;5.65;;
1625;SDS011;806;48.770;9.156;2023-03-04T08:28:21;12.00;;;5.97;;
1625;SDS011;806;48.770;9.156;2023-03-04T08:30:53;10.23;;;5.68;;
1625;SDS011;806;48.770;9.156;2023-03-04T08:33:20;12.98;;;6.70;;
1625;SDS011;806;48.770;9.156;2023-03-04T08:35:47;11.80;;;6.65;;
1625;SDS011;806;48.770;9.156;2023-03-04T08:38:15;10.50;;;4.93;;
1625;SDS011;806;48.770;9.156;2023-03-04T08:40:42;13.38;;;6.93;;
1625;SDS011;806;48.770;9.156;2023-03-04T08:43:09;11.43;;;6.28;;
1625;SDS011;806;48.770;9.156;2023-03-04T08:45:36;10.90;;;6.10;;
1625;SDS011;806;48.770;9.156;2023-03-04T08:48:05;11.48;;;6.63;;
1625;SDS011;806;48.770;9.156;2023-03-04T08:50:32;12.60;;;6.17;;
1625;SDS011;806;48.770;9.156;2023-03-04T08:53:01;12.27;;;6.22;;
1625;SDS011;806;48.770;9.156;2023-03-04T08:55:28;14.55;;;7.25;;
1625;SDS011;806;48.770;9.156;2023-03-04T08:57:55;11.82;;;7.10;;
1625;SDS011;806;48.770;9.156;2023-03-04T09:00:22;13.77;;;7.10;;
1625;SDS011;806;48.770;9.156;2023-03-04T09:02:49;16.30;;;7.72;;
1625;SDS011;806;48.770;9.156;2023-03-04T09:05:18;14.25;;;6.60;;
1625;SDS011;806;48.770;9.156;2023-03-04T09:07:45;14.45;;;7.97;;
1625;SDS011;806;48.770;9.156;2023-03-04T09:10:12;14.82;;;7.38;;
1625;SDS011;806;48.770;9.156;2023-03-04T09:12:39;14.18;;;7.18;;
1625;SDS011;806;48.770;9.156;2023-03-04T09:15:07;13.00;;;6.83;;
1625;SDS011;806;48.770;9.156;2023-03-04T09:17:35;14.90;;;7.70;;
1625;SDS011;806;48.770;9.156;2023-03-04T09:20:02;12.50;;;6.70;;
1625;SDS011;806;48.770;9.156;2023-03-04T09:22:32;13.50;;;6.57;;
1625;SDS011;806;48.770;9.156;2023-03-04T09:25:00;10.00;;;6.50;;
1625;SDS011;806;48.770;9.156;2023-03-04T09:27:27;9.88;;;5.60;;
1625;SDS011;806;48.770;9.156;2023-03-04T09:29:54;15.15;;;8.40;;
1625;SDS011;806;48.770;9.156;2023-03-04T09:32:21;10.75;;;5.70;;
1625;SDS011;806;48.770;9.156;2023-03-04T09:34:48;13.07;;;6.60;;
1625;SDS011;806;48.770;9.156;2023-03-04T09:37:15;11.50;;;6.17;;
1625;SDS011;806;48.770;9.156;2023-03-04T09:39:44;13.05;;;6.85;;
1625;SDS011;806;48.770;9.156;2023-03-04T09:42:23;12.13;;;5.97;;
1625;SDS011;806;48.770;9.156;2023-03-04T09:44:52;12.23;;;7.47;;
1625;SDS011;806;48.770;9.156;2023-03-04T09:47:20;11.50;;;6.22;;
1625;SDS011;806;48.770;9.156;2023-03-04T09:49:51;12.40;;;6.80;;
1625;SDS011;806;48.770;9.156;2023-03-04T09:52:25;11.63;;;6.60;;
1625;SDS011;806;48.770;9.156;2023-03-04T09:55:05;11.70;;;7.40;;
1625;SDS011;806;48.770;9.156;2023-03-04T09:57:44;11.90;;;7.97;;
1625;SDS011;806;48.770;9.156;2023-03-04T10:00:16;10.18;;;7.43;;
1625;SDS011;806;48.770;9.156;2023-03-04T10:02:46;13.13;;;7.83;;
1625;SDS011;806;48.770;9.156;2023-03-04T10:05:27;11.98;;;6.90;;
1625;SDS011;806;48.770;9.156;2023-03-04T10:07:57;14.05;;;7.90;;
1625;SDS011;806;48.770;9.156;2023-03-04T10:10:34;15.68;;;8.50;;
1625;SDS011;806;48.770;9.156;2023-03-04T10:13:04;13.68;;;8.10;;
1625;SDS011;806;48.770;9.156;2023-03-04T10:15:40;13.93;;;8.40;;
1625;SDS011;806;48.770;9.156;2023-03-04T10:18:11;13.47;;;8.07;;
1625;SDS011;806;48.770;9.156;2023-03-04T10:20:46;14.20;;;8.57;;
1625;SDS011;806;48.770;9.156;2023-03-04T10:23:20;15.82;;;8.77;;
1625;SDS011;806;48.770;9.156;2023-03-04T10:25:51;14.80;;;9.20;;
1625;SDS011;806;48.770;9.156;2023-03-04T10:28:19;12.90;;;8.50;;
1625;SDS011;806;48.770;9.156;2023-03-04T10:30:52;15.93;;;9.35;;
1625;SDS011;806;48.770;9.156;2023-03-04T10:33:26;14.38;;;8.40;;
1625;SDS011;806;48.770;9.156;2023-03-04T10:36:00;14.05;;;9.35;;
1625;SDS011;806;48.770;9.156;2023-03-04T10:38:30;15.45;;;9.57;;
1625;SDS011;806;48.770;9.156;2023-03-04T10:40:59;14.05;;;9.40;;
1625;SDS011;806;48.770;9.156;2023-03-04T10:43:28;16.50;;;11.93;;
1625;SDS011;806;48.770;9.156;2023-03-04T10:45:56;16.95;;;9.40;;
1625;SDS011;806;48.770;9.156;2023-03-04T10:48:25;16.15;;;9.93;;
1625;SDS011;806;48.770;9.156;2023-03-04T10:50:56;24.00;;;16.85;;
1625;SDS011;806;48.770;9.156;2023-03-04T10:53:38;19.88;;;10.90;;
1625;SDS011;806;48.770;9.156;2023-03-04T11:02:17;18.52;;;11.10;;
1625;SDS011;806;48.770;9.156;2023-03-04T11:04:50;19.27;;;11.23;;
1625;SDS011;806;48.770;9.156;2023-03-04T11:07:20;20.85;;;12.98;;
1625;SDS011;806;48.770;9.156;2023-03-04T11:09:48;19.80;;;11.40;;
1625;SDS011;806;48.770;9.156;2023-03-04T11:12:18;20.45;;;11.50;;
1625;SDS011;806;48.770;9.156;2023-03-04T11:14:47;18.60;;;12.23;;
1625;SDS011;806;48.770;9.156;2023-03-04T11:17:17;17.90;;;10.60;;
1625;SDS011;806;48.770;9.156;2023-03-04T11:19:47;22.60;;;13.30;;
1625;SDS011;806;48.770;9.156;2023-03-04T11:22:19;21.05;;;13.38;;
1625;SDS011;806;48.770;9.156;2023-03-04T11:24:51;22.20;;;12.45;;
1625;SDS011;806;48.770;9.156;2023-03-04T11:27:25;21.90;;;13.55;;
1625;SDS011;806;48.770;9.156;2023-03-04T11:30:02;20.57;;;11.90;;
1625;SDS011;806;48.770;9.156;2023-03-04T11:32:42;20.45;;;13.07;;
1625;SDS011;806;48.770;9.156;2023-03-04T11:35:14;26.25;;;16.83;;
1625;SDS011;806;48.770;9.156;2023-03-04T11:37:50;24.83;;;15.57;;
1625;SDS011;806;48.770;9.156;2023-03-04T11:40:25;21.95;;;13.38;;
1625;SDS011;806;48.770;9.156;2023-03-04T11:43:02;22.98;;;14.35;;
1625;SDS011;806;48.770;9.156;2023-03-04T11:45:40;22.50;;;13.77;;
1625;SDS011;806;48.770;9.156;2023-03-04T11:48:41;23.60;;;14.25;;
1625;SDS011;806;48.770;9.156;2023-03-04T11:51:19;24.13;;;14.70;;
1625;SDS011;806;48.770;9.156;2023-03-04T11:53:56;23.25;;;14.70;;
1625;SDS011;806;48.770;9.156;2023-03-04T11:56:33;21.63;;;13.60;;
1625;SDS011;806;48.770;9.156;2023-03-04T12:02:14;21.67;;;14.07;;
1625;SDS011;806;48.770;9.156;2023-03-04T12:04:49;24.48;;;14.48;;
1625;SDS011;806;48.770;9.156;2023-03-04T12:07:45;24.63;;;15.15;;
1625;SDS011;806;48.770;9.156;2023-03-04T12:10:25;21.35;;;13.27;;
1625;SDS011;806;48.770;9.156;2023-03-04T12:16:04;29.27;;;18.33;;
1625;SDS011;806;48.770;9.156;2023-03-04T12:18:48;26.33;;;16.83;;
1625;SDS011;806;48.770;9.156;2023-03-04T12:21:29;24.23;;;13.95;;
1625;SDS011;806;48.770;9.156;2023-03-04T12:24:18;22.93;;;13.27;;
1625;SDS011;806;48.770;9.156;2023-03-04T12:27:04;23.48;;;13.93;;
1625;SDS011;806;48.770;9.156;2023-03-04T12:29:44;20.50;;;13.05;;
1625;SDS011;806;48.770;9.156;2023-03-04T12:32:23;24.10;;;13.57;;
1625;SDS011;806;48.770;9.156;2023-03-04T12:35:08;22.05;;;12.63;;
1625;SDS011;806;48.770;9.156;2023-03-04T12:37:51;21.37;;;13.80;;
1625;SDS011;806;48.770;9.156;2023-03-04T12:40:35;21.20;;;13.55;;
1625;SDS011;806;48.770;9.156;2023-03-04T12:46:26;21.60;;;14.02;;
1625;SDS011;806;48.770;9.156;2023-03-04T12:49:12;22.75;;;13.85;;
1625;SDS011;806;48.770;9.156;2023-03-04T12:51:47;23.83;;;14.00;;
1625;SDS011;806;48.770;9.156;2023-03-04T12:54:22;25.70;;;14.60;;
1625;SDS011;806;48.770;9.156;2023-03-04T12:56:57;31.08;;;19.63;;
1625;SDS011;806;48.770;9.156;2023-03-04T12:59:28;20.90;;;13.20;;
1625;SDS011;806;48.770;9.156;2023-03-04T13:02:03;24.52;;;13.80;;
1625;SDS011;806;48.770;9.156;2023-03-04T13:04:56;24.52;;;13.75;;
1625;SDS011;806;48.770;9.156;2023-03-04T13:07:35;25.42;;;14.95;;
1625;SDS011;806;48.770;9.156;2023-03-04T13:10:08;21.63;;;14.35;;
1625;SDS011;806;48.770;9.156;2023-03-04T13:12:46;23.40;;;13.88;;
1625;SDS011;806;48.770;9.156;2023-03-04T13:15:16;22.02;;;14.02;;
1625;SDS011;806;48.770;9.156;2023-03-04T13:17:55;23.53;;;14.40;;
1625;SDS011;806;48.770;9.156;2023-03-04T13:20:32;26.95;;;14.98;;
1625;SDS011;806;48.770;9.156;2023-03-04T13:23:19;28.02;;;15.63;;
1625;SDS011;806;48.770;9.156;2023-03-04T13:26:07;26.58;;;15.35;;
1625;SDS011;806;48.770;9.156;2023-03-04T13:28:52;27.67;;;14.93;;
1625;SDS011;806;48.770;9.156;2023-03-04T13:31:24;22.30;;;13.02;;
1625;SDS011;806;48.770;9.156;2023-03-04T13:34:02;27.42;;;13.73;;
1625;SDS011;806;48.770;9.156;2023-03-04T13:39:27;26.88;;;13.35;;
1625;SDS011;806;48.770;9.156;2023-03-04T13:42:11;24.77;;;12.52;;
1625;SDS011;806;48.770;9.156;2023-03-04T13:47:56;19.33;;;10.93;;
1625;SDS011;806;48.770;9.156;2023-03-04T13:50:36;18.38;;;10.57;;
1625;SDS011;806;48.770;9.156;2023-03-04T13:59:25;18.15;;;10.27;;
1625;SDS011;806;48.770;9.156;2023-03-04T14:01:57;15.82;;;9.70;;
1625;SDS011;806;48.770;9.156;2023-03-04T14:04:36;16.17;;;9.70;;
1625;SDS011;806;48.770;9.156;2023-03-04T14:07:16;15.80;;;7.95;;
1625;SDS011;806;48.770;9.156;2023-03-04T14:09:57;16.13;;;8.02;;
1625;SDS011;806;48.770;9.156;2023-03-04T14:12:27;15.75;;;8.20;;
1625;SDS011;806;48.770;9.156;2023-03-04T14:14:56;11.88;;;7.13;;
1625;SDS011;806;48.770;9.156;2023-03-04T14:17:27;14.85;;;8.05;;
1625;SDS011;806;48.770;9.156;2023-03-04T14:19:56;12.10;;;6.80;;
1625;SDS011;806;48.770;9.156;2023-03-04T14:22:25;14.10;;;7.20;;
1625;SDS011;806;48.770;9.156;2023-03-04T14:24:55;13.80;;;7.65;;
1625;SDS011;806;48.770;9.156;2023-03-04T14:27:24;16.23;;;8.98;;
1625;SDS011;806;48.770;9.156;2023-03-04T14:29:55;13.98;;;7.50;;
1625;SDS011;806;48.770;9.156;2023-03-04T14:32:23;15.65;;;7.78;;
1625;SDS011;806;48.770;9.156;2023-03-04T14:34:52;13.23;;;7.60;;
1625;SDS011;806;48.770;9.156;2023-03-04T14:37:23;10.88;;;7.38;;
1625;SDS011;806;48.770;9.156;2023-03-04T14:39:53;11.02;;;7.00;;
1625;SDS011;806;48.770;9.156;2023-03-04T14:42:24;12.80;;;7.13;;
1625;SDS011;806;48.770;9.156;2023-03-04T14:45:01;12.32;;;6.70;;
1625;SDS011;806;48.770;9.156;2023-03-04T14:47:31;15.15;;;7.72;;
1625;SDS011;806;48.770;9.156;2023-03-04T14:50:03;12.15;;;7.15;;
1625;SDS011;806;48.770;9.156;2023-03-04T14:52:32;11.90;;;7.00;;
1625;SDS011;806;48.770;9.156;2023-03-04T14:55:14;15.05;;;7.05;;
1625;SDS011;806;48.770;9.156;2023-03-04T14:57:48;15.32;;;7.47;;
1625;SDS011;806;48.770;9.156;2023-03-04T15:00:26;15.75;;;8.68;;
1625;SDS011;806;48.770;9.156;2023-03-04T15:02:56;13.57;;;8.23;;
1625;SDS011;806;48.770;9.156;2023-03-04T15:05:26;16.23;;;8.30;;
1625;SDS011;806;48.770;9.156;2023-03-04T15:07:55;15.27;;;8.50;;
1625;SDS011;806;48.770;9.156;2023-03-04T15:10:25;17.77;;;9.07;;
1625;SDS011;806;48.770;9.156;2023-03-04T15:12:56;18.52;;;8.30;;
1625;SDS011;806;48.770;9.156;2023-03-04T15:15:33;14.00;;;7.88;;
1625;SDS011;806;48.770;9.156;2023-03-04T15:18:17;16.30;;;8.43;;
1625;SDS011;806;48.770;9.156;2023-03-04T15:20:57;13.23;;;7.22;;
1625;SDS011;806;48.770;9.156;2023-03-04T15:23:26;15.68;;;8.48;;
1625;SDS011;806;48.770;9.156;2023-03-04T15:25:55;14.77;;;8.02;;
1625;SDS011;806;48.770;9.156;2023-03-04T15:28:25;13.70;;;7.10;;
1625;SDS011;806;48.770;9.156;2023-03-04T15:30:58;12.70;;;6.70;;
1625;SDS011;806;48.770;9.156;2023-03-04T15:33:25;14.30;;;7.05;;
1625;SDS011;806;48.770;9.156;2023-03-04T15:35:53;15.57;;;8.00;;
1625;SDS011;806;48.770;9.156;2023-03-04T15:38:22;16.42;;;7.32;;
1625;SDS011;806;48.770;9.156;2023-03-04T15:40:50;14.90;;;8.27;;
1625;SDS011;806;48.770;9.156;2023-03-04T15:43:19;14.60;;;7.73;;
1625;SDS011;806;48.770;9.156;2023-03-04T15:45:49;14.13;;;7.57;;
1625;SDS011;806;48.770;9.156;2023-03-04T15:48:17;14.05;;;7.03;;
1625;SDS011;806;48.770;9.156;2023-03-04T15:50:46;17.38;;;7.57;;
1625;SDS011;806;48.770;9.156;2023-03-04T15:53:16;16.30;;;7.15;;
1625;SDS011;806;48.770;9.156;2023-03-04T15:55:48;14.27;;;8.10;;